Time;durP1;ratioP1;P1;durP2;ratioP2;P2;SDS_P1;SDS_P2;PMS_P1;PMS_P2;Temp;Humidity;BMP_temperature;BMP_pressure;BME280_temperature;BME280_humidity;BME280_pressure;Samples;Min_cycle;Max_cycle;Signal;HPM_P1;HPM_P2
2022/12/08 00:01:23;;;;;;;;;71.00;54.25;;;;;7.44;62.38;101004.44;6341441;22;45525;-54
2022/12/08 00:03:50;;;;;;;;;63.50;51.00;;;;;7.41;62.62;100998.31;6341365;22;45266;-51
2022/12/08 00:09:20;;;;;;;;;69.00;53.25;;;;;7.36;62.57;100989.59;6341863;22;45353;-54
2022/12/08 00:11:46;;;;;;;;;72.50;55.00;;;;;7.35;62.50;100987.88;6341245;22;47087;-53
2022/12/08 00:14:12;;;;;;;;;67.00;52.50;;;;;7.34;62.63;100979.13;6341591;22;45162;-53
2022/12/08 00:16:37;;;;;;;;;63.75;50.25;;;;;7.28;62.46;100972.16;6342151;22;45214;-54
2022/12/08 00:19:02;;;;;;;;;73.00;56.00;;;;;7.24;62.65;100986.06;6341656;22;45138;-53
2022/12/08 00:21:28;;;;;;;;;72.25;54.75;;;;;7.18;62.85;100972.97;6340977;22;45207;-53
2022/12/08 00:23:54;;;;;;;;;67.00;53.50;;;;;7.07;63.10;100967.72;6340719;22;45280;-51
2022/12/08 00:26:20;;;;;;;;;69.00;53.75;;;;;7.08;62.98;100966.88;6341441;22;45144;-53
2022/12/08 00:28:45;;;;;;;;;66.25;53.25;;;;;7.05;62.86;100963.38;6341525;22;45222;-54
2022/12/08 00:31:11;;;;;;;;;69.50;52.00;;;;;6.93;63.09;100959.84;6341019;22;45271;-52
2022/12/08 00:33:37;;;;;;;;;71.00;53.50;;;;;6.92;63.08;100957.22;6341818;22;45313;-53
2022/12/08 00:36:11;;;;;;;;;67.75;53.50;;;;;6.92;63.00;100957.22;6341624;22;45274;-53
2022/12/08 00:38:38;;;;;;;;;69.50;54.25;;;;;6.89;63.00;100957.19;6339287;22;45232;-54
2022/12/08 00:41:10;;;;;;;;;72.25;53.50;;;;;6.86;63.10;100962.41;6340578;22;47141;-51
2022/12/08 00:43:36;;;;;;;;;73.50;55.50;;;;;6.81;62.91;100962.38;6341241;22;45346;-51
2022/12/08 00:46:01;;;;;;;;;71.00;53.25;;;;;6.83;63.12;100963.28;6341312;22;45238;-54
2022/12/08 00:48:26;;;;;;;;;67.50;52.00;;;;;6.75;63.32;100952.75;6340193;22;45452;-53
2022/12/08 00:50:52;;;;;;;;;66.25;53.25;;;;;6.70;63.26;100954.47;6340313;22;45420;-53
2022/12/08 00:53:17;;;;;;;;;58.50;48.00;;;;;6.66;63.19;100950.13;6341736;22;45261;-53
2022/12/08 00:55:42;;;;;;;;;60.50;50.50;;;;;6.60;63.24;100945.75;6341590;22;45234;-54
2022/12/08 00:58:08;;;;;;;;;66.75;52.00;;;;;6.57;63.15;100943.09;6340935;22;45250;-51
2022/12/08 01:00:33;;;;;;;;;67.75;51.75;;;;;6.54;63.12;100942.22;6338775;22;47098;-54
2022/12/08 01:02:58;;;;;;;;;62.00;48.50;;;;;6.51;63.21;100940.47;6341613;22;45172;-49
2022/12/08 01:05:24;;;;;;;;;66.75;48.75;;;;;6.47;63.15;100934.34;6339253;22;45226;-53
2022/12/08 01:07:49;;;;;;;;;62.75;50.00;;;;;6.45;63.34;100941.31;6341470;22;45516;-51
2022/12/08 01:10:15;;;;;;;;;66.25;49.50;;;;;6.41;63.29;100928.22;6341175;22;45949;-52
2022/12/08 01:12:40;;;;;;;;;63.25;49.50;;;;;6.38;63.51;100928.19;6340992;22;45313;-53
2022/12/08 01:15:06;;;;;;;;;67.75;51.75;;;;;6.34;63.33;100920.34;6341042;22;45289;-53
2022/12/08 01:17:32;;;;;;;;;61.75;49.25;;;;;6.33;63.33;100918.59;6341284;22;45175;-53
2022/12/08 01:19:58;;;;;;;;;61.75;49.25;;;;;6.32;63.33;100919.47;6340271;22;46051;-53
2022/12/08 01:22:23;;;;;;;;;68.25;51.50;;;;;6.32;63.43;100918.59;6341054;22;45651;-51
2022/12/08 01:24:49;;;;;;;;;68.50;50.25;;;;;6.30;63.16;100917.69;6341607;22;45175;-51
2022/12/08 01:27:15;;;;;;;;;66.00;49.50;;;;;6.29;63.40;100914.22;6341235;22;45147;-50
2022/12/08 01:29:40;;;;;;;;;67.00;51.00;;;;;6.30;63.22;100915.09;6340889;22;45168;-51
2022/12/08 01:32:07;;;;;;;;;66.00;51.00;;;;;6.30;63.22;100908.16;6341526;22;45159;-51
2022/12/08 01:34:33;;;;;;;;;65.75;52.00;;;;;6.30;63.29;100902.03;6341071;22;45262;-51
2022/12/08 01:36:59;;;;;;;;;64.75;50.25;;;;;6.32;63.24;100902.94;6340895;22;45281;-53
2022/12/08 01:39:24;;;;;;;;;62.00;46.25;;;;;6.33;63.42;100899.47;6341274;22;45216;-54
2022/12/08 01:41:49;;;;;;;;;61.50;49.75;;;;;6.31;63.36;100901.19;6338265;22;45273;-52
2022/12/08 01:44:14;;;;;;;;;59.50;48.00;;;;;6.32;63.43;100901.19;6339601;22;46009;-52
2022/12/08 01:46:42;;;;;;;;;59.50;49.50;;;;;6.33;63.56;100899.47;6339852;22;45423;-52
2022/12/08 01:49:13;;;;;;;;;62.00;48.00;;;;;6.31;63.49;100895.97;6339209;22;45333;-53
2022/12/08 01:51:53;;;;;;;;;65.25;49.50;;;;;6.33;63.55;100904.69;6339347;22;45341;-52
2022/12/08 01:54:22;;;;;;;;;61.75;48.75;;;;;6.31;63.53;100895.97;6339781;22;45290;-48
2022/12/08 01:57:11;;;;;;;;;63.00;50.75;;;;;6.31;63.65;100895.97;6338548;22;45360;-50
2022/12/08 01:59:43;;;;;;;;;57.50;47.50;;;;;6.32;63.90;100900.31;6340034;22;45191;-50
2022/12/08 02:02:10;;;;;;;;;58.50;47.00;;;;;6.31;63.48;100901.19;6341002;22;45265;-51
2022/12/08 02:04:36;;;;;;;;;67.00;50.00;;;;;6.32;63.97;100888.13;6340324;22;45718;-50
2022/12/08 02:07:01;;;;;;;;;61.50;49.25;;;;;6.31;63.62;100889.03;6340836;22;45231;-54
2022/12/08 02:09:27;;;;;;;;;63.75;49.00;;;;;6.33;63.54;100883.81;6340959;22;45325;-50
2022/12/08 02:11:55;;;;;;;;;58.25;45.75;;;;;6.34;63.57;100890.78;6340510;22;45173;-53
2022/12/08 02:14:21;;;;;;;;;59.75;47.50;;;;;6.34;63.59;100886.41;6342138;22;45313;-50
2022/12/08 02:17:08;;;;;;;;;60.50;48.75;;;;;6.38;63.63;100887.31;6342399;22;45223;-53
2022/12/08 02:19:36;;;;;;;;;63.00;49.25;;;;;6.39;63.51;100888.16;6342484;22;45287;-53
2022/12/08 02:22:27;;;;;;;;;66.25;49.75;;;;;6.40;63.60;100890.81;6342212;22;45259;-54
2022/12/08 02:25:16;;;;;;;;;34.25;25.75;;;;;6.43;63.71;100895.19;6342721;22;45194;-50
2022/12/08 02:27:54;;;;;;;;;64.00;50.25;;;;;6.44;63.68;100886.44;6342135;22;45259;-52
2022/12/08 02:30:32;;;;;;;;;62.00;49.50;;;;;6.44;63.56;100886.44;6342131;22;46203;-52
2022/12/08 02:33:15;;;;;;;;;61.00;47.75;;;;;6.47;63.59;100891.72;6342207;22;45313;-52
2022/12/08 02:35:55;;;;;;;;;64.25;49.00;;;;;6.48;63.79;100893.47;6342657;22;45210;-53
2022/12/08 02:38:46;;;;;;;;;62.00;48.75;;;;;6.49;63.59;100889.97;6341698;22;45175;-50
2022/12/08 02:41:26;;;;;;;;;65.00;48.00;;;;;6.49;63.71;100883.00;6341758;22;46099;-53
2022/12/08 02:44:05;;;;;;;;;56.25;45.00;;;;;6.50;63.81;100883.88;6342168;22;45160;-53
2022/12/08 02:46:38;;;;;;;;;53.75;40.50;;;;;6.53;63.80;100875.19;6342016;22;45200;-54
2022/12/08 02:49:04;;;;;;;;;58.75;46.25;;;;;6.54;63.71;100871.72;6342461;22;45155;-52
2022/12/08 02:51:29;;;;;;;;;59.25;49.50;;;;;6.52;63.83;100860.41;6340995;22;46804;-54
2022/12/08 02:53:55;;;;;;;;;61.75;49.00;;;;;6.55;63.79;100866.50;6342291;22;45264;-53
2022/12/08 02:56:45;;;;;;;;;57.50;46.25;;;;;6.55;63.89;100865.63;6340172;22;45230;-53
2022/12/08 02:59:41;;;;;;;;;66.50;51.00;;;;;6.55;63.87;100857.78;6341924;22;45191;-53
2022/12/08 03:02:17;;;;;;;;;62.75;49.25;;;;;6.53;63.74;100856.91;6340302;22;47171;-53
2022/12/08 03:04:58;;;;;;;;;60.75;47.75;;;;;6.51;64.00;100854.28;6341507;22;45108;-51
2022/12/08 03:07:34;;;;;;;;;61.75;50.50;;;;;6.52;63.67;100855.19;6342471;22;45250;-54
2022/12/08 03:10:26;;;;;;;;;63.75;50.25;;;;;6.50;63.95;100848.22;6341726;22;45376;-53
2022/12/08 03:13:00;;;;;;;;;61.25;50.50;;;;;6.46;63.98;100841.22;6340348;22;46749;-53
2022/12/08 03:15:26;;;;;;;;;62.00;47.75;;;;;6.45;63.82;100839.50;6341540;22;45154;-54
2022/12/08 03:17:56;;;;;;;;;62.75;51.50;;;;;6.41;63.92;100834.25;6341630;22;45195;-53
2022/12/08 03:20:26;;;;;;;;;64.00;49.00;;;;;6.40;63.96;100828.16;6341177;22;45471;-51
2022/12/08 03:22:55;;;;;;;;;67.50;51.00;;;;;6.40;63.83;100824.66;6342043;22;45343;-53
2022/12/08 03:25:23;;;;;;;;;62.50;49.25;;;;;6.38;63.87;100818.53;6341855;22;45251;-53
2022/12/08 03:27:50;;;;;;;;;55.75;46.25;;;;;6.39;63.81;100822.91;6341529;22;45243;-53
2022/12/08 03:30:16;;;;;;;;;57.00;42.25;;;;;6.32;63.88;100814.19;6342335;22;45162;-54
2022/12/08 03:33:02;;;;;;;;;59.50;47.50;;;;;6.32;64.17;100811.56;6341849;22;45291;-50
2022/12/08 03:35:32;;;;;;;;;61.50;48.00;;;;;6.27;64.01;100810.69;6341591;22;45317;-53
2022/12/08 03:38:03;;;;;;;;;60.50;49.50;;;;;6.26;63.87;100811.53;6341938;22;45246;-52
2022/12/08 03:40:28;;;;;;;;;60.75;46.00;;;;;6.24;63.70;100811.53;6341187;22;45425;-52
2022/12/08 03:42:54;;;;;;;;;66.75;51.50;;;;;6.24;63.87;100808.03;6341560;22;46064;-52
2022/12/08 03:45:20;;;;;;;;;61.50;48.50;;;;;6.20;63.72;100808.91;6339657;22;45346;-49
2022/12/08 03:47:45;;;;;;;;;63.75;49.00;;;;;6.11;64.14;100794.06;6341559;22;45274;-52
2022/12/08 03:50:11;;;;;;;;;59.50;47.50;;;;;6.09;63.88;100791.47;6341048;22;45542;-54
2022/12/08 03:52:36;;;;;;;;;54.50;45.75;;;;;6.12;63.90;100799.28;6341651;22;45983;-52
2022/12/08 03:55:02;;;;;;;;;61.75;49.00;;;;;6.08;63.91;100796.69;6342084;22;45138;-53
2022/12/08 03:57:27;;;;;;;;;62.75;50.00;;;;;6.02;63.77;100787.06;6341238;22;45220;-49
2022/12/08 03:59:53;;;;;;;;;58.50;46.75;;;;;6.00;64.12;100784.47;6341694;22;45143;-52
2022/12/08 04:02:18;;;;;;;;;52.75;39.00;;;;;6.00;64.06;100789.69;6341827;22;45290;-50
2022/12/08 04:04:43;;;;;;;;;55.75;45.75;;;;;5.98;63.91;100787.88;6341935;22;45105;-53
2022/12/08 04:07:09;;;;;;;;;57.00;45.00;;;;;5.97;64.07;100789.59;6342130;22;45093;-53
2022/12/08 04:09:34;;;;;;;;;61.75;48.25;;;;;5.96;63.69;100787.00;6341752;22;45308;-54
2022/12/08 04:11:59;;;;;;;;;56.00;45.25;;;;;5.90;63.99;100793.06;6341575;22;45923;-51
2022/12/08 04:14:25;;;;;;;;;66.50;51.25;;;;;5.92;64.07;100796.53;6341558;22;45454;-51
2022/12/08 04:16:50;;;;;;;;;41.50;36.25;;;;;5.89;63.82;100791.31;6341916;22;45173;-53
2022/12/08 04:19:15;;;;;;;;;46.50;38.25;;;;;5.83;64.05;100789.53;6341867;22;45143;-54
2022/12/08 04:21:41;;;;;;;;;57.25;42.50;;;;;5.82;63.94;100790.41;6341612;22;45294;-53
2022/12/08 04:24:06;;;;;;;;;43.25;38.25;;;;;5.80;64.03;100789.53;6340925;22;45352;-54
2022/12/08 04:26:31;;;;;;;;;53.00;41.50;;;;;5.77;63.92;100789.50;6342066;22;45261;-53
2022/12/08 04:28:57;;;;;;;;;49.50;40.75;;;;;5.72;63.92;100790.34;6341634;22;45519;-49
2022/12/08 04:31:22;;;;;;;;;54.75;43.50;;;;;5.71;63.71;100784.25;6341462;22;45921;-52
2022/12/08 04:33:47;;;;;;;;;51.75;38.25;;;;;5.63;63.86;100785.94;6339834;22;45270;-52
2022/12/08 04:36:13;;;;;;;;;42.75;39.00;;;;;5.57;64.00;100776.31;6341808;22;45209;-53
2022/12/08 04:38:38;;;;;;;;;40.75;33.50;;;;;5.59;64.06;100778.97;6341786;22;45244;-53
2022/12/08 04:41:04;;;;;;;;;42.50;36.50;;;;;5.54;63.81;100779.78;6340772;22;45425;-54
2022/12/08 04:43:29;;;;;;;;;51.50;39.00;;;;;5.50;64.06;100777.16;6341370;22;45301;-52
2022/12/08 04:45:55;;;;;;;;;55.50;41.75;;;;;5.49;64.15;100781.47;6339667;22;45596;-49
2022/12/08 04:48:20;;;;;;;;;46.00;39.50;;;;;5.49;63.86;100772.81;6341617;22;45167;-49
2022/12/08 04:50:45;;;;;;;;;49.25;39.75;;;;;5.47;63.94;100770.19;6341221;22;45418;-52
2022/12/08 04:53:12;;;;;;;;;54.00;40.00;;;;;5.45;64.05;100764.09;6341606;22;45257;-52
2022/12/08 04:55:39;;;;;;;;;50.25;40.00;;;;;5.44;63.97;100771.91;6341487;22;45154;-53
2022/12/08 04:58:04;;;;;;;;;48.00;36.75;;;;;5.42;63.96;100766.69;6340376;22;45388;-52
2022/12/08 05:00:30;;;;;;;;;53.50;39.25;;;;;5.40;63.84;100754.50;6341697;22;45174;-51
2022/12/08 05:02:55;;;;;;;;;45.50;38.75;;;;;5.41;63.93;100754.50;6341622;22;45218;-50
2022/12/08 05:05:20;;;;;;;;;45.25;38.00;;;;;5.37;64.00;100753.63;6341617;22;45188;-52
2022/12/08 05:07:46;;;;;;;;;38.25;33.25;;;;;5.30;63.91;100744.00;6341570;22;45169;-53
2022/12/08 05:10:11;;;;;;;;;49.00;37.25;;;;;5.34;63.81;100744.88;6339459;22;45383;-53
2022/12/08 05:12:36;;;;;;;;;39.50;32.25;;;;;5.32;63.85;100744.00;6338763;22;45239;-52
2022/12/08 05:15:02;;;;;;;;;41.25;35.75;;;;;5.28;64.13;100742.25;6339476;22;45562;-52
2022/12/08 05:17:28;;;;;;;;;38.25;35.50;;;;;5.26;63.81;100739.63;6339897;22;45758;-51
2022/12/08 05:19:53;;;;;;;;;47.00;37.50;;;;;5.21;63.87;100738.72;6339421;22;45399;-54
2022/12/08 05:22:18;;;;;;;;;47.75;37.50;;;;;5.17;63.89;100740.44;6339835;22;45685;-53
2022/12/08 05:24:44;;;;;;;;;41.00;35.50;;;;;5.15;64.07;100736.94;6339892;22;45380;-53
2022/12/08 05:27:10;;;;;;;;;49.00;39.00;;;;;5.09;63.95;100736.00;6339930;22;45477;-52
2022/12/08 05:29:35;;;;;;;;;43.50;36.00;;;;;5.04;64.01;100734.25;6339245;22;45335;-50
2022/12/08 05:32:01;;;;;;;;;44.50;38.00;;;;;5.04;63.89;100734.25;6339954;22;45313;-54
2022/12/08 05:34:26;;;;;;;;;40.00;34.50;;;;;5.02;63.98;100730.75;6339915;22;45319;-52
2022/12/08 05:36:51;;;;;;;;;47.25;37.75;;;;;5.00;63.86;100736.81;6339560;22;45245;-49
2022/12/08 05:39:17;;;;;;;;;43.50;38.00;;;;;5.00;64.00;100729.84;6339234;22;45988;-53
2022/12/08 05:41:42;;;;;;;;;42.75;36.00;;;;;4.96;63.98;100735.91;6339217;22;45277;-53
2022/12/08 05:44:08;;;;;;;;;43.00;36.00;;;;;4.94;64.24;100736.75;6339759;22;45176;-51
2022/12/08 05:46:34;;;;;;;;;53.75;36.50;;;;;4.93;64.06;100738.50;6340995;22;45431;-50
2022/12/08 05:49:00;;;;;;;;;40.00;34.50;;;;;4.90;64.02;100728.03;6341050;22;45981;-52
2022/12/08 05:51:27;;;;;;;;;44.00;38.50;;;;;4.92;64.09;100735.84;6340551;22;45561;-54
2022/12/08 05:53:53;;;;;;;;;46.25;38.50;;;;;4.88;64.22;100728.03;6341349;22;45179;-52
2022/12/08 05:56:19;;;;;;;;;41.00;35.75;;;;;4.84;64.29;100735.78;6340565;22;45322;-51
2022/12/08 05:58:45;;;;;;;;;38.50;34.00;;;;;4.79;64.44;100740.97;6340599;22;45223;-53
2022/12/08 06:01:26;;;;;;;;;43.00;34.00;;;;;4.79;64.41;100735.78;6340574;22;45273;-53
2022/12/08 06:03:52;;;;;;;;;40.75;30.75;;;;;4.83;64.29;100734.94;6340704;22;45219;-57
2022/12/08 06:06:18;;;;;;;;;42.25;36.25;;;;;4.83;64.22;100734.94;6340891;22;45239;-52
2022/12/08 06:08:43;;;;;;;;;38.00;30.25;;;;;4.82;64.67;100734.91;6340851;22;45309;-52
2022/12/08 06:11:09;;;;;;;;;41.50;35.25;;;;;4.74;64.56;100729.63;6340587;22;45195;-53
2022/12/08 06:13:34;;;;;;;;;40.25;34.50;;;;;4.75;64.74;100726.16;6339138;22;45346;-54
2022/12/08 06:16:04;;;;;;;;;36.50;35.25;;;;;4.78;64.53;100733.13;6341252;22;45299;-51
2022/12/08 06:18:30;;;;;;;;;41.75;35.75;;;;;4.76;64.30;100722.69;6340677;22;46370;-51
2022/12/08 06:21:06;;;;;;;;;41.00;33.25;;;;;4.76;64.20;100720.09;6340950;22;45179;-52
2022/12/08 06:23:32;;;;;;;;;42.25;35.75;;;;;4.76;64.65;100724.44;6338885;22;45281;-50
2022/12/08 06:26:14;;;;;;;;;47.50;38.50;;;;;4.75;64.67;100735.72;6340815;22;45167;-49
2022/12/08 06:28:40;;;;;;;;;45.50;33.00;;;;;4.70;64.50;100715.72;6338539;22;46020;-53
2022/12/08 06:31:13;;;;;;;;;38.50;34.25;;;;;4.74;64.59;100724.41;6340790;22;45377;-51
2022/12/08 06:33:38;;;;;;;;;42.25;37.00;;;;;4.76;64.50;100724.44;6341229;22;45139;-53
2022/12/08 06:36:05;;;;;;;;;43.50;35.50;;;;;4.69;64.60;100713.97;6341026;22;45189;-52
2022/12/08 06:38:30;;;;;;;;;49.25;37.75;;;;;4.72;64.25;100720.94;6340692;22;46107;-53
2022/12/08 06:40:57;;;;;;;;;39.75;34.50;;;;;4.71;64.45;100713.97;6340691;22;45162;-52
2022/12/08 06:43:24;;;;;;;;;42.75;34.75;;;;;4.70;64.65;100715.72;6334580;22;45336;-53
2022/12/08 06:45:50;;;;;;;;;47.00;39.25;;;;;4.69;64.75;100710.47;6337026;22;45287;-52
2022/12/08 06:48:16;;;;;;;;;55.50;40.00;;;;;4.70;64.74;100713.13;6340470;22;46334;-50
2022/12/08 06:50:41;;;;;;;;;41.25;36.50;;;;;4.70;64.74;100701.81;6339987;22;45211;-54
2022/12/08 06:53:07;;;;;;;;;29.50;18.50;;;;;4.70;64.76;100712.22;6340312;22;45316;-53
2022/12/08 06:55:32;;;;;;;;;55.75;38.75;;;;;4.71;64.54;100708.78;6340053;22;45188;-48
2022/12/08 06:57:58;;;;;;;;;46.50;38.00;;;;;4.70;64.69;100710.50;6339704;22;45199;-48
2022/12/08 07:00:23;;;;;;;;;44.75;38.25;;;;;4.72;64.28;100708.78;6339219;22;45336;-53
2022/12/08 07:02:48;;;;;;;;;48.50;38.25;;;;;4.71;64.45;100714.84;6342345;22;45251;-48
2022/12/08 07:05:14;;;;;;;;;43.00;35.50;;;;;4.75;64.75;100718.34;6339952;22;45238;-49
2022/12/08 07:07:40;;;;;;;;;49.00;42.50;;;;;4.77;64.55;100711.44;6340635;22;46627;-49
2022/12/08 07:10:06;;;;;;;;;43.25;34.50;;;;;4.77;64.78;100705.34;6341818;22;45390;-52
2022/12/08 07:12:31;;;;;;;;;42.50;33.50;;;;;4.78;64.73;100704.47;6341717;22;45422;-52
2022/12/08 07:14:56;;;;;;;;;41.00;36.75;;;;;4.78;64.57;100710.59;6341700;22;45317;-54
2022/12/08 07:17:22;;;;;;;;;42.50;34.25;;;;;4.82;64.74;100711.47;6341676;22;45735;-50
2022/12/08 07:19:47;;;;;;;;;41.00;32.00;;;;;4.83;64.87;100708.00;6341857;22;45277;-49
2022/12/08 07:22:12;;;;;;;;;45.25;36.00;;;;;4.83;64.75;100713.19;6341522;22;45261;-50
2022/12/08 07:24:38;;;;;;;;;37.00;36.00;;;;;4.87;64.61;100709.78;6341907;22;45254;-52
2022/12/08 07:27:03;;;;;;;;;40.25;32.25;;;;;4.90;64.55;100703.75;6341623;22;46227;-53
2022/12/08 07:29:28;;;;;;;;;34.25;30.75;;;;;4.91;64.74;100708.94;6341393;22;45175;-53
2022/12/08 07:31:54;;;;;;;;;29.00;22.75;;;;;4.94;64.69;100705.50;6341648;22;45768;-53
2022/12/08 07:34:19;;;;;;;;;38.00;29.75;;;;;4.96;64.71;100704.66;6341914;22;45474;-53
2022/12/08 07:36:44;;;;;;;;;33.25;33.00;;;;;5.00;64.63;100705.56;6341253;22;46036;-54
2022/12/08 07:39:10;;;;;;;;;34.25;27.75;;;;;5.00;64.75;100708.16;6339852;22;45312;-53
2022/12/08 07:41:35;;;;;;;;;33.50;28.50;;;;;5.01;64.47;100712.50;6339978;22;45168;-51
2022/12/08 07:44:00;;;;;;;;;37.75;27.25;;;;;4.99;64.76;100698.59;6339475;22;45280;-52
2022/12/08 07:46:26;;;;;;;;;38.25;29.00;;;;;4.99;64.72;100699.47;6341943;22;46040;-53
2022/12/08 07:48:52;;;;;;;;;44.25;34.75;;;;;4.96;64.56;100701.19;6339563;22;45263;-51
2022/12/08 07:51:18;;;;;;;;;43.75;34.00;;;;;4.98;64.46;100702.94;6340548;22;46188;-55
2022/12/08 07:53:45;;;;;;;;;42.00;34.00;;;;;4.95;64.38;100700.28;6341488;22;45238;-51
2022/12/08 07:56:12;;;;;;;;;41.00;34.00;;;;;4.95;64.38;100702.03;6341757;22;45974;-54
2022/12/08 07:58:38;;;;;;;;;44.75;36.75;;;;;4.97;64.41;100697.69;6340527;22;45294;-54
2022/12/08 08:01:03;;;;;;;;;44.75;36.50;;;;;4.97;64.64;100700.28;6340892;22;45261;-55
2022/12/08 08:03:29;;;;;;;;;39.25;35.25;;;;;4.98;64.58;100696.84;6341371;22;45337;-53
2022/12/08 08:06:01;;;;;;;;;39.00;29.50;;;;;5.00;64.81;100703.81;6341161;22;45352;-53
2022/12/08 08:08:27;;;;;;;;;50.50;38.75;;;;;4.97;64.34;100701.19;6341730;22;45297;-55
2022/12/08 08:10:52;;;;;;;;;43.00;38.25;;;;;4.94;64.41;100695.09;6341100;22;45385;-54
2022/12/08 08:13:17;;;;;;;;;50.50;40.50;;;;;4.98;64.73;100683.81;6338946;22;45200;-54
2022/12/08 08:15:43;;;;;;;;;38.75;33.75;;;;;4.98;64.59;100689.03;6339502;22;48179;-54
2022/12/08 08:18:08;;;;;;;;;36.25;33.75;;;;;5.00;64.31;100684.72;6341580;22;45164;-52
2022/12/08 08:20:33;;;;;;;;;28.25;25.75;;;;;5.05;64.75;100683.00;6341224;22;45238;-52
2022/12/08 08:22:59;;;;;;;;;38.25;33.00;;;;;5.08;64.44;100680.44;6341770;22;45291;-55
2022/12/08 08:25:24;;;;;;;;;37.25;31.50;;;;;5.12;64.46;100684.81;6341530;22;45211;-52
2022/12/08 08:27:49;;;;;;;;;84.75;66.25;;;;;5.15;64.50;100697.00;6341447;22;45304;-51
2022/12/08 08:30:16;;;;;;;;;35.50;30.25;;;;;5.15;64.97;100686.56;6339957;22;45357;-54
2022/12/08 08:32:41;;;;;;;;;45.00;36.75;;;;;5.17;64.53;100688.31;6341767;22;45261;-55
2022/12/08 08:35:07;;;;;;;;;41.50;34.50;;;;;5.20;64.60;100693.53;6341622;22;46170;-53
2022/12/08 08:37:32;;;;;;;;;45.50;30.50;;;;;5.24;64.43;100689.22;6341666;22;45128;-55
2022/12/08 08:39:58;;;;;;;;;39.75;32.25;;;;;5.26;64.56;100684.00;6341143;22;45292;-55
2022/12/08 08:42:23;;;;;;;;;47.50;35.50;;;;;5.33;64.62;100678.00;6339672;22;45259;-54
2022/12/08 08:44:49;;;;;;;;;40.25;34.75;;;;;5.36;64.41;100678.88;6340326;22;45958;-54
2022/12/08 08:47:14;;;;;;;;;46.75;38.50;;;;;5.42;64.79;100671.97;6341534;22;45147;-54
2022/12/08 08:49:40;;;;;;;;;28.00;26.50;;;;;5.48;64.62;100667.66;6341293;22;45117;-54
2022/12/08 08:52:06;;;;;;;;;41.00;33.50;;;;;5.54;64.58;100667.69;6341279;22;45101;-54
2022/12/08 08:54:32;;;;;;;;;38.00;32.75;;;;;5.58;64.76;100660.75;6341563;22;45319;-53
2022/12/08 08:56:59;;;;;;;;;42.25;32.00;;;;;5.62;64.65;100659.03;6341449;22;45250;-52
2022/12/08 08:59:25;;;;;;;;;37.00;30.00;;;;;5.68;64.46;100669.50;6341007;22;45291;-54
2022/12/08 09:01:50;;;;;;;;;40.50;29.50;;;;;5.68;64.61;100659.06;6341130;22;45212;-54
2022/12/08 09:04:16;;;;;;;;;31.25;26.00;;;;;5.76;64.46;100667.81;6341105;22;45313;-54
2022/12/08 09:06:44;;;;;;;;;27.25;23.75;;;;;5.77;64.80;100669.53;6341437;22;45196;-54
2022/12/08 09:09:10;;;;;;;;;35.75;27.25;;;;;5.80;64.67;100663.50;6341154;22;45087;-53
2022/12/08 09:11:36;;;;;;;;;31.00;25.25;;;;;5.84;64.59;100673.06;6341185;22;45171;-54
2022/12/08 09:14:01;;;;;;;;;34.25;27.75;;;;;5.84;64.47;100665.22;6341037;22;45187;-51
2022/12/08 09:16:26;;;;;;;;;29.75;25.25;;;;;5.90;64.51;100674.81;6341548;22;45343;-51
2022/12/08 09:18:52;;;;;;;;;27.25;25.50;;;;;5.94;64.39;100671.38;6341491;22;45810;-54
2022/12/08 09:21:21;;;;;;;;;34.50;24.75;;;;;5.94;64.25;100669.63;6340676;22;45279;-52
2022/12/08 09:23:51;;;;;;;;;36.75;30.75;;;;;5.98;64.05;100667.91;6340560;22;47435;-53
2022/12/08 09:26:21;;;;;;;;;31.75;26.50;;;;;5.96;63.99;100654.84;6340936;22;45339;-54
2022/12/08 09:28:46;;;;;;;;;28.50;23.00;;;;;5.97;64.04;100666.16;6340540;22;45318;-54
2022/12/08 09:31:13;;;;;;;;;25.00;24.25;;;;;5.95;64.06;100671.38;6341023;22;45112;-54
2022/12/08 09:33:39;;;;;;;;;34.25;31.00;;;;;5.94;63.88;100668.75;6340856;22;46770;-53
2022/12/08 09:36:04;;;;;;;;;26.25;25.75;;;;;5.87;64.26;100665.22;6341545;22;45200;-52
2022/12/08 09:38:30;;;;;;;;;22.00;19.75;;;;;5.84;64.10;100671.31;6340924;22;45231;-52
2022/12/08 09:40:57;;;;;;;;;31.75;29.75;;;;;5.80;64.18;100663.50;6341047;22;45480;-55
2022/12/08 09:43:56;;;;;;;;;31.00;29.00;;;;;5.85;63.68;100661.75;6340569;22;46091;-54
2022/12/08 09:46:25;;;;;;;;;30.50;24.25;;;;;5.81;63.92;100660.88;6341476;22;45156;-51
2022/12/08 09:48:54;;;;;;;;;34.25;27.00;;;;;5.79;63.86;100657.38;6340943;22;45184;-52
2022/12/08 09:51:26;;;;;;;;;28.25;23.25;;;;;5.78;64.03;100650.41;6340093;22;45542;-54
2022/12/08 09:53:58;;;;;;;;;27.75;27.50;;;;;5.80;63.86;100651.31;6339112;22;47354;-54
2022/12/08 09:56:28;;;;;;;;;32.00;29.75;;;;;5.79;63.90;100644.34;6340358;22;45097;-52
2022/12/08 09:59:02;;;;;;;;;35.50;32.50;;;;;5.83;64.03;100648.69;6340063;22;45306;-54
2022/12/08 10:01:31;;;;;;;;;33.75;27.50;;;;;5.88;63.57;100651.34;6340818;22;45436;-53
2022/12/08 10:03:57;;;;;;;;;29.00;26.75;;;;;5.86;63.76;100648.72;6340979;22;45077;-54
2022/12/08 10:06:38;;;;;;;;;36.00;25.75;;;;;5.88;63.70;100642.66;6341065;22;45199;-51
2022/12/08 10:09:25;;;;;;;;;31.50;29.25;;;;;5.83;63.88;100640.88;6341129;22;45301;-52
2022/12/08 10:12:12;;;;;;;;;33.00;30.25;;;;;5.81;63.78;100629.59;6340674;22;45444;-52
2022/12/08 10:14:42;;;;;;;;;33.25;26.25;;;;;5.85;63.50;100636.53;6339983;22;45162;-53
2022/12/08 10:17:23;;;;;;;;;31.00;27.50;;;;;5.87;63.43;100633.94;6340975;22;45297;-55
2022/12/08 10:19:57;;;;;;;;;38.50;33.00;;;;;5.85;63.68;100631.31;6340550;22;45239;-52
2022/12/08 10:22:25;;;;;;;;;39.00;32.75;;;;;5.88;63.49;100624.38;6342040;22;45277;-54
2022/12/08 10:25:05;;;;;;;;;43.00;31.75;;;;;5.88;63.58;100613.97;6340296;22;47178;-51
2022/12/08 10:27:34;;;;;;;;;41.75;34.50;;;;;5.90;63.67;100609.59;6339663;22;45392;-55
2022/12/08 10:30:00;;;;;;;;;36.50;33.00;;;;;5.91;63.58;100598.31;6341841;22;45253;-55
2022/12/08 10:32:34;;;;;;;;;38.25;33.25;;;;;5.92;63.59;100600.06;6342411;22;45478;-52
2022/12/08 10:35:14;;;;;;;;;32.75;30.00;;;;;5.91;63.60;100601.81;6341473;22;46175;-54
2022/12/08 10:37:39;;;;;;;;;33.25;30.25;;;;;5.88;63.65;100604.38;6342405;22;45254;-50
2022/12/08 10:40:15;;;;;;;;;30.25;29.50;;;;;5.86;63.48;100593.94;6340475;22;45350;-51
2022/12/08 10:42:51;;;;;;;;;40.00;35.50;;;;;5.86;63.46;100590.47;6341078;22;45503;-54
2022/12/08 10:45:23;;;;;;;;;39.00;32.25;;;;;5.89;63.57;100581.75;6341264;22;46100;-54
2022/12/08 10:48:20;;;;;;;;;35.75;32.75;;;;;5.92;63.63;100584.41;6342423;22;45304;-53
2022/12/08 10:50:51;;;;;;;;;36.00;30.50;;;;;5.91;63.29;100585.25;6316464;22;45400;-54
2022/12/08 10:53:25;;;;;;;;;34.75;32.50;;;;;5.93;63.44;100583.53;6340707;22;45230;-55
2022/12/08 10:56:04;;;;;;;;;46.00;35.50;;;;;5.95;63.18;100576.56;6340449;22;45189;-54
2022/12/08 10:58:39;;;;;;;;;39.75;34.25;;;;;5.97;63.26;100570.47;6339237;22;45320;-54
2022/12/08 11:01:22;;;;;;;;;41.00;34.75;;;;;5.97;63.40;100567.00;6340372;22;45195;-52
2022/12/08 11:03:50;;;;;;;;;37.00;34.00;;;;;5.95;63.45;100564.41;6340671;22;45535;-53
2022/12/08 11:06:29;;;;;;;;;35.50;34.00;;;;;5.96;63.34;100566.16;6340075;22;45284;-55
2022/12/08 11:09:01;;;;;;;;;40.50;35.50;;;;;5.96;63.51;100557.44;6340415;22;45246;-53
2022/12/08 11:11:47;;;;;;;;;33.50;28.75;;;;;6.02;63.45;100562.72;6340217;22;45257;-54
2022/12/08 11:14:24;;;;;;;;;44.75;35.25;;;;;5.99;63.52;100549.69;6340085;22;45376;-51
2022/12/08 11:16:53;;;;;;;;;34.50;31.25;;;;;5.99;63.33;100552.28;6340146;22;45352;-53
2022/12/08 11:19:19;;;;;;;;;40.50;35.00;;;;;5.97;63.38;100552.22;6339847;22;45318;-53
2022/12/08 11:21:46;;;;;;;;;43.25;35.50;;;;;6.00;63.44;100541.00;6340433;22;45288;-54
2022/12/08 11:24:14;;;;;;;;;40.00;33.50;;;;;6.03;63.35;100540.97;6338475;22;45301;-54
2022/12/08 11:26:47;;;;;;;;;36.25;30.25;;;;;6.06;63.13;100538.34;6337984;22;47100;-50